Omura, Japan
Current Conditions -  °F | °C
As of 4:00 PM on Friday 31 Oct 2014 (Local Time) from RJFU Reporting Station
Light Rain Light Rain  
Wind Chill: 70°   Ceiling: 10000
Heat Index: 70°   Visibility: 6mi
Dew Point: 61°   Wind: 12mph
Humidity: 73%   Direction: 150°SSE
Pressure: 30"   Gusts: NA
Location:  32.91°N, 129.95°E
Report Text: RJFU 310700Z 15010KT 9999 -RA FEW030 SCT060 OVC100 21/16 Q1016
Loading
Personal Weather Stations






























Interactive Weather Map
Tropical Storm Tracking
New forecast layout! Learn more

10-Day Weather Forecast

Advertisements
Track Severe Weather on mobile